Thornton, TX (76687)

3:13 PM CST on February 14, 2016 (GMT -0600)
D Bar M | | Change Station
CLOSE
Current Station
Personal Weather Station
Location: Groesbeck, TX
Elevation: 482 ft
Nearby Weather Stations

Elev 482 ft 31.45 °N, 96.50 °W | Updated 25 seconds ago

Overcast
Overcast
72.3 °F
Feels Like 77 °F
N
4.9
Wind Variable Wind from NW
Gusts 7.4 mph

Today
High -- | Low -- °F
--% Chance of Precip.
Yesterday
High -- | Low -- °F
Precip. -- in
Pressure 29.87 in
Visibility 10.0 miles
Clouds Scattered Clouds 3100 ft
Scattered Clouds 3700 ft
Heat Index 77 °F
Dew Point 55 °F
Humidity 54%
Rainfall 0.00 in
Snow Depth Not available.
7:08 AM 6:11 PM
Waxing Crescent, 45% visible
METAR KLXY 142055Z AUTO 19015G27KT 10SM SCT031 SCT037 21/13 A2987 RMK AO2 T02100128
Pressure 29.87 in
Visibility 10.0 miles
Clouds Scattered Clouds 3100 ft
Scattered Clouds 3700 ft
Heat Index 77 °F
Dew Point 55 °F
Humidity 54%
Rainfall 0.00 in
Snow Depth Not available.
7:08 AM 6:11 PM
Waxing Crescent, 45% visible
METAR KLXY 142055Z AUTO 19015G27KT 10SM SCT031 SCT037 21/13 A2987 RMK AO2 T02100128

10-Day Weather Forecast

Almanac

Astronomy

Feb. 14, 2016 Rise Set
Actual Time
Civil Twilight
Nautical Twilight
Astronomical Twilight
Moon
Length of Visible Light
Length of Day
Tomorrow will be .
, % of the Moon is Illuminated

Today's Extremes

State Highs State Lows

Community

WunderPhotos

Upload Photos

1,892,886 photos uploaded!

WunderBlog® & News

Nearby

Air Quality

  Air Quality AQ Index Pollutant
Not available.

Snow Depth

Station Depth Elevation

Earthquake Activity

City Distance Mag. Time & Date
Minimum magnitude displayed is 2.5.

Coastal Water Temperatures

Place Temperature

Stations

Nearby Weather Stations

Station Location Temp. Windchill Dew Point Humidity Wind Precip. Elev Updated Type
                   

Watches & Warnings

There are currently no watches in effect.